sensor_id;sensor_type;location;lat;lon;timestamp;pressure;altitude;pressure_sealevel;temperature;humidity
66742;BME280;53654;54.152;19.432;2022-08-19T00:01:48;101176.08;;;23.17;68.30
66742;BME280;53654;54.152;19.432;2022-08-19T00:04:23;101177.99;;;23.14;68.00
66742;BME280;53654;54.152;19.432;2022-08-19T00:06:52;101182.96;;;23.11;68.16
66742;BME280;53654;54.152;19.432;2022-08-19T00:09:22;101183.14;;;23.08;68.04
66742;BME280;53654;54.152;19.432;2022-08-19T00:11:52;101175.67;;;23.05;68.03
66742;BME280;53654;54.152;19.432;2022-08-19T00:14:22;101173.36;;;23.01;68.14
66742;BME280;53654;54.152;19.432;2022-08-19T00:16:52;101164.44;;;22.99;68.17
66742;BME280;53654;54.152;19.432;2022-08-19T00:19:22;101163.11;;;22.97;68.39
66742;BME280;53654;54.152;19.432;2022-08-19T00:21:52;101165.23;;;22.97;68.63
66742;BME280;53654;54.152;19.432;2022-08-19T00:24:20;101165.98;;;22.96;68.17
66742;BME280;53654;54.152;19.432;2022-08-19T00:26:48;101170.94;;;22.97;68.45
66742;BME280;53654;54.152;19.432;2022-08-19T00:29:19;101171.92;;;22.95;68.13
66742;BME280;53654;54.152;19.432;2022-08-19T00:31:48;101178.32;;;22.95;68.04
66742;BME280;53654;54.152;19.432;2022-08-19T00:34:17;101183.48;;;22.95;67.77
66742;BME280;53654;54.152;19.432;2022-08-19T00:36:46;101179.59;;;22.95;67.68
66742;BME280;53654;54.152;19.432;2022-08-19T00:39:16;101182.30;;;22.94;67.55
66742;BME280;53654;54.152;19.432;2022-08-19T00:41:45;101189.56;;;22.91;67.75
66742;BME280;53654;54.152;19.432;2022-08-19T00:44:25;101195.71;;;22.89;67.69
66742;BME280;53654;54.152;19.432;2022-08-19T00:46:56;101195.70;;;22.86;67.72
66742;BME280;53654;54.152;19.432;2022-08-19T00:49:47;101188.23;;;22.82;67.50
66742;BME280;53654;54.152;19.432;2022-08-19T00:52:23;101185.02;;;22.79;67.51
66742;BME280;53654;54.152;19.432;2022-08-19T00:54:56;101187.86;;;22.75;67.58
66742;BME280;53654;54.152;19.432;2022-08-19T00:57:36;101190.87;;;22.72;67.84
66742;BME280;53654;54.152;19.432;2022-08-19T01:00:10;101192.16;;;22.68;67.94
66742;BME280;53654;54.152;19.432;2022-08-19T01:02:41;101193.67;;;22.63;68.15
66742;BME280;53654;54.152;19.432;2022-08-19T01:05:22;101198.45;;;22.56;68.49
66742;BME280;53654;54.152;19.432;2022-08-19T01:07:51;101193.13;;;22.49;69.02
66742;BME280;53654;54.152;19.432;2022-08-19T01:10:23;101194.47;;;22.44;69.34
66742;BME280;53654;54.152;19.432;2022-08-19T01:12:53;101189.35;;;22.40;69.67
66742;BME280;53654;54.152;19.432;2022-08-19T01:15:29;101185.70;;;22.35;70.02
66742;BME280;53654;54.152;19.432;2022-08-19T01:18:00;101184.03;;;22.29;70.28
66742;BME280;53654;54.152;19.432;2022-08-19T01:20:30;101184.32;;;22.24;70.62
66742;BME280;53654;54.152;19.432;2022-08-19T01:22:58;101186.92;;;22.17;70.87
66742;BME280;53654;54.152;19.432;2022-08-19T01:25:39;101190.23;;;22.15;70.49
66742;BME280;53654;54.152;19.432;2022-08-19T01:28:15;101187.95;;;22.14;70.79
66742;BME280;53654;54.152;19.432;2022-08-19T01:30:44;101192.82;;;22.13;70.93
66742;BME280;53654;54.152;19.432;2022-08-19T01:33:18;101195.48;;;22.13;70.54
66742;BME280;53654;54.152;19.432;2022-08-19T01:35:47;101188.30;;;22.14;70.34
66742;BME280;53654;54.152;19.432;2022-08-19T01:38:22;101184.48;;;22.16;70.27
66742;BME280;53654;54.152;19.432;2022-08-19T01:40:52;101182.09;;;22.18;69.88
66742;BME280;53654;54.152;19.432;2022-08-19T01:43:20;101177.77;;;22.19;69.77
66742;BME280;53654;54.152;19.432;2022-08-19T01:45:48;101177.30;;;22.22;69.75
66742;BME280;53654;54.152;19.432;2022-08-19T01:48:16;101176.23;;;22.22;69.61
66742;BME280;53654;54.152;19.432;2022-08-19T01:50:44;101178.23;;;22.21;69.81
66742;BME280;53654;54.152;19.432;2022-08-19T01:53:12;101175.77;;;22.20;69.90
66742;BME280;53654;54.152;19.432;2022-08-19T01:55:42;101176.20;;;22.18;70.08
66742;BME280;53654;54.152;19.432;2022-08-19T01:58:16;101172.37;;;22.17;70.19
66742;BME280;53654;54.152;19.432;2022-08-19T02:00:46;101179.39;;;22.11;70.76
66742;BME280;53654;54.152;19.432;2022-08-19T02:03:15;101182.86;;;22.06;71.03
66742;BME280;53654;54.152;19.432;2022-08-19T02:05:44;101180.48;;;22.04;71.03
66742;BME280;53654;54.152;19.432;2022-08-19T02:08:13;101181.54;;;22.04;70.81
66742;BME280;53654;54.152;19.432;2022-08-19T02:10:43;101178.98;;;22.05;70.83
66742;BME280;53654;54.152;19.432;2022-08-19T02:13:12;101177.86;;;22.07;70.57
66742;BME280;53654;54.152;19.432;2022-08-19T02:15:41;101177.73;;;22.09;70.42
66742;BME280;53654;54.152;19.432;2022-08-19T02:18:09;101175.96;;;22.12;70.34
66742;BME280;53654;54.152;19.432;2022-08-19T02:20:39;101178.34;;;22.15;70.11
66742;BME280;53654;54.152;19.432;2022-08-19T02:23:08;101181.56;;;22.18;70.00
66742;BME280;53654;54.152;19.432;2022-08-19T02:25:42;101180.88;;;22.21;69.89
66742;BME280;53654;54.152;19.432;2022-08-19T02:28:10;101179.32;;;22.24;69.74
66742;BME280;53654;54.152;19.432;2022-08-19T02:30:46;101175.12;;;22.26;69.76
66742;BME280;53654;54.152;19.432;2022-08-19T02:33:15;101178.67;;;22.29;69.83
66742;BME280;53654;54.152;19.432;2022-08-19T02:35:44;101178.85;;;22.33;69.67
66742;BME280;53654;54.152;19.432;2022-08-19T02:38:14;101178.48;;;22.37;69.62
66742;BME280;53654;54.152;19.432;2022-08-19T02:40:58;101176.67;;;22.41;69.41
66742;BME280;53654;54.152;19.432;2022-08-19T02:43:29;101175.45;;;22.44;69.04
66742;BME280;53654;54.152;19.432;2022-08-19T02:46:02;101172.24;;;22.48;69.03
66742;BME280;53654;54.152;19.432;2022-08-19T02:48:30;101170.50;;;22.50;69.13
66742;BME280;53654;54.152;19.432;2022-08-19T02:51:00;101168.98;;;22.52;68.93
66742;BME280;53654;54.152;19.432;2022-08-19T02:53:28;101167.86;;;22.53;68.83
66742;BME280;53654;54.152;19.432;2022-08-19T02:55:57;101168.17;;;22.54;68.82
66742;BME280;53654;54.152;19.432;2022-08-19T02:58:25;101171.87;;;22.55;68.69
66742;BME280;53654;54.152;19.432;2022-08-19T03:00:55;101169.17;;;22.56;68.61
66742;BME280;53654;54.152;19.432;2022-08-19T03:03:24;101170.55;;;22.56;68.53
66742;BME280;53654;54.152;19.432;2022-08-19T03:06:12;101171.70;;;22.58;68.57
66742;BME280;53654;54.152;19.432;2022-08-19T03:08:45;101173.41;;;22.59;68.66
66742;BME280;53654;54.152;19.432;2022-08-19T03:11:21;101173.73;;;22.60;68.47
66742;BME280;53654;54.152;19.432;2022-08-19T03:13:50;101172.23;;;22.62;68.53
66742;BME280;53654;54.152;19.432;2022-08-19T03:16:20;101167.62;;;22.61;68.50
66742;BME280;53654;54.152;19.432;2022-08-19T03:18:50;101168.20;;;22.64;68.41
66742;BME280;53654;54.152;19.432;2022-08-19T03:21:24;101167.50;;;22.64;68.40
66742;BME280;53654;54.152;19.432;2022-08-19T03:23:57;101173.88;;;22.64;68.44
66742;BME280;53654;54.152;19.432;2022-08-19T03:26:26;101175.38;;;22.66;68.43
66742;BME280;53654;54.152;19.432;2022-08-19T03:28:54;101177.98;;;22.67;68.38
66742;BME280;53654;54.152;19.432;2022-08-19T03:31:26;101173.92;;;22.66;68.30
66742;BME280;53654;54.152;19.432;2022-08-19T03:34:18;101172.89;;;22.69;68.49
66742;BME280;53654;54.152;19.432;2022-08-19T03:36:48;101173.26;;;22.69;68.37
66742;BME280;53654;54.152;19.432;2022-08-19T03:39:16;101176.13;;;22.68;68.46
66742;BME280;53654;54.152;19.432;2022-08-19T03:41:46;101175.35;;;22.70;68.18
66742;BME280;53654;54.152;19.432;2022-08-19T03:44:20;101171.20;;;22.71;68.37
66742;BME280;53654;54.152;19.432;2022-08-19T03:46:52;101169.56;;;22.71;68.48
66742;BME280;53654;54.152;19.432;2022-08-19T03:49:23;101167.88;;;22.73;68.28
66742;BME280;53654;54.152;19.432;2022-08-19T03:51:57;101164.25;;;22.74;68.30
66742;BME280;53654;54.152;19.432;2022-08-19T03:54:28;101166.27;;;22.76;68.17
66742;BME280;53654;54.152;19.432;2022-08-19T03:56:57;101170.09;;;22.79;67.95
66742;BME280;53654;54.152;19.432;2022-08-19T03:59:28;101173.50;;;22.81;67.99
66742;BME280;53654;54.152;19.432;2022-08-19T04:01:59;101175.68;;;22.84;68.26
66742;BME280;53654;54.152;19.432;2022-08-19T04:04:28;101173.20;;;22.88;68.27
66742;BME280;53654;54.152;19.432;2022-08-19T04:06:58;101172.30;;;22.91;67.97
66742;BME280;53654;54.152;19.432;2022-08-19T04:09:26;101171.60;;;22.94;67.89
66742;BME280;53654;54.152;19.432;2022-08-19T04:11:56;101171.98;;;22.97;67.79
66742;BME280;53654;54.152;19.432;2022-08-19T04:14:28;101171.27;;;23.00;67.81
66742;BME280;53654;54.152;19.432;2022-08-19T04:16:59;101175.85;;;23.05;67.69
66742;BME280;53654;54.152;19.432;2022-08-19T04:19:29;101180.77;;;23.09;67.61
66742;BME280;53654;54.152;19.432;2022-08-19T04:21:58;101180.19;;;23.13;67.53
66742;BME280;53654;54.152;19.432;2022-08-19T04:24:27;101181.15;;;23.19;67.16
66742;BME280;53654;54.152;19.432;2022-08-19T04:26:55;101180.73;;;23.23;67.05
66742;BME280;53654;54.152;19.432;2022-08-19T04:29:24;101177.50;;;23.27;67.00
66742;BME280;53654;54.152;19.432;2022-08-19T04:31:55;101185.61;;;23.31;66.75
66742;BME280;53654;54.152;19.432;2022-08-19T04:34:27;101184.51;;;23.35;66.79
66742;BME280;53654;54.152;19.432;2022-08-19T04:36:58;101180.46;;;23.40;66.90
66742;BME280;53654;54.152;19.432;2022-08-19T04:39:29;101177.17;;;23.45;66.67
66742;BME280;53654;54.152;19.432;2022-08-19T04:42:17;101178.25;;;23.52;66.34
66742;BME280;53654;54.152;19.432;2022-08-19T04:45:13;101179.40;;;23.61;66.36
66742;BME280;53654;54.152;19.432;2022-08-19T04:47:44;101180.89;;;23.72;66.17
66742;BME280;53654;54.152;19.432;2022-08-19T04:50:26;101169.73;;;24.05;65.70
66742;BME280;53654;54.152;19.432;2022-08-19T04:52:54;101168.17;;;24.56;64.64
66742;BME280;53654;54.152;19.432;2022-08-19T04:55:24;101173.70;;;25.08;63.33
66742;BME280;53654;54.152;19.432;2022-08-19T04:57:55;101172.29;;;25.61;62.22
66742;BME280;53654;54.152;19.432;2022-08-19T05:00:23;101171.52;;;26.14;60.75
66742;BME280;53654;54.152;19.432;2022-08-19T05:02:51;101176.80;;;26.64;59.17
66742;BME280;53654;54.152;19.432;2022-08-19T05:05:20;101176.30;;;26.99;57.48
66742;BME280;53654;54.152;19.432;2022-08-19T05:07:48;101176.91;;;27.36;57.22
66742;BME280;53654;54.152;19.432;2022-08-19T05:10:16;101179.89;;;27.79;55.92
66742;BME280;53654;54.152;19.432;2022-08-19T05:12:45;101174.84;;;28.18;54.81
66742;BME280;53654;54.152;19.432;2022-08-19T05:15:13;101174.27;;;28.53;53.98
66742;BME280;53654;54.152;19.432;2022-08-19T05:17:41;101176.23;;;28.84;52.60
66742;BME280;53654;54.152;19.432;2022-08-19T05:20:29;101173.25;;;29.14;51.74
66742;BME280;53654;54.152;19.432;2022-08-19T05:23:16;101172.05;;;29.36;51.56
66742;BME280;53654;54.152;19.432;2022-08-19T05:25:51;101169.27;;;29.44;50.89
66742;BME280;53654;54.152;19.432;2022-08-19T05:28:20;101168.48;;;29.38;50.59
66742;BME280;53654;54.152;19.432;2022-08-19T05:30:49;101167.81;;;29.31;50.73
66742;BME280;53654;54.152;19.432;2022-08-19T05:33:18;101164.38;;;29.31;50.23
66742;BME280;53654;54.152;19.432;2022-08-19T05:35:47;101164.84;;;29.30;50.12
66742;BME280;53654;54.152;19.432;2022-08-19T05:38:17;101161.83;;;29.29;50.01
66742;BME280;53654;54.152;19.432;2022-08-19T05:40:45;101157.18;;;29.42;49.97
66742;BME280;53654;54.152;19.432;2022-08-19T05:43:17;101157.84;;;29.78;49.86
66742;BME280;53654;54.152;19.432;2022-08-19T05:45:45;101161.18;;;30.24;48.91
66742;BME280;53654;54.152;19.432;2022-08-19T05:48:14;101161.34;;;30.67;47.85
66742;BME280;53654;54.152;19.432;2022-08-19T05:50:42;101166.36;;;30.94;46.89
66742;BME280;53654;54.152;19.432;2022-08-19T05:53:10;101171.97;;;31.04;46.53
66742;BME280;53654;54.152;19.432;2022-08-19T05:55:38;101173.55;;;30.98;45.75
66742;BME280;53654;54.152;19.432;2022-08-19T05:58:06;101171.83;;;30.74;46.24
66742;BME280;53654;54.152;19.432;2022-08-19T06:00:36;101172.63;;;30.59;46.52
66742;BME280;53654;54.152;19.432;2022-08-19T06:03:04;101174.96;;;30.46;46.98
66742;BME280;53654;54.152;19.432;2022-08-19T06:05:41;101181.36;;;30.43;47.07
66742;BME280;53654;54.152;19.432;2022-08-19T06:08:19;101185.27;;;30.43;46.88
66742;BME280;53654;54.152;19.432;2022-08-19T06:11:24;101199.68;;;30.41;46.91
66742;BME280;53654;54.152;19.432;2022-08-19T06:13:53;101212.58;;;30.44;47.02
66742;BME280;53654;54.152;19.432;2022-08-19T06:16:27;101217.32;;;30.69;47.00
66742;BME280;53654;54.152;19.432;2022-08-19T06:18:57;101214.83;;;30.88;46.34
66742;BME280;53654;54.152;19.432;2022-08-19T06:21:29;101209.27;;;30.89;46.17
66742;BME280;53654;54.152;19.432;2022-08-19T06:23:58;101207.77;;;31.00;45.70
66742;BME280;53654;54.152;19.432;2022-08-19T06:26:27;101204.66;;;31.13;45.58
66742;BME280;53654;54.152;19.432;2022-08-19T06:28:55;101197.36;;;31.29;45.37
66742;BME280;53654;54.152;19.432;2022-08-19T06:31:26;101195.73;;;31.41;44.82
66742;BME280;53654;54.152;19.432;2022-08-19T06:33:54;101198.06;;;31.57;44.25
66742;BME280;53654;54.152;19.432;2022-08-19T06:36:28;101198.09;;;31.61;43.85
66742;BME280;53654;54.152;19.432;2022-08-19T06:38:58;101200.32;;;31.54;43.98
66742;BME280;53654;54.152;19.432;2022-08-19T06:41:28;101196.88;;;31.46;44.08
66742;BME280;53654;54.152;19.432;2022-08-19T06:43:56;101208.55;;;31.39;44.05
66742;BME280;53654;54.152;19.432;2022-08-19T06:46:25;101215.27;;;31.32;44.61
66742;BME280;53654;54.152;19.432;2022-08-19T06:48:56;101216.84;;;31.33;44.43
66742;BME280;53654;54.152;19.432;2022-08-19T06:51:26;101217.40;;;31.33;44.77
66742;BME280;53654;54.152;19.432;2022-08-19T06:53:58;101213.02;;;31.31;44.51
66742;BME280;53654;54.152;19.432;2022-08-19T06:56:29;101202.17;;;31.15;44.90
66742;BME280;53654;54.152;19.432;2022-08-19T06:59:07;101193.77;;;30.97;45.23
66742;BME280;53654;54.152;19.432;2022-08-19T07:01:37;101191.48;;;30.80;45.97
66742;BME280;53654;54.152;19.432;2022-08-19T07:04:07;101189.92;;;30.70;46.07
66742;BME280;53654;54.152;19.432;2022-08-19T07:06:38;101194.73;;;30.53;46.07
66742;BME280;53654;54.152;19.432;2022-08-19T07:09:13;101191.51;;;30.42;46.82
66742;BME280;53654;54.152;19.432;2022-08-19T07:11:48;101188.00;;;30.41;46.83
66742;BME280;53654;54.152;19.432;2022-08-19T07:14:19;101192.97;;;30.40;47.14
66742;BME280;53654;54.152;19.432;2022-08-19T07:16:49;101192.83;;;30.37;46.96
66742;BME280;53654;54.152;19.432;2022-08-19T07:19:18;101190.31;;;30.33;46.94
66742;BME280;53654;54.152;19.432;2022-08-19T07:21:49;101190.04;;;30.24;47.19
66742;BME280;53654;54.152;19.432;2022-08-19T07:24:23;101195.27;;;30.19;47.34
66742;BME280;53654;54.152;19.432;2022-08-19T07:26:55;101196.53;;;30.19;47.33
66742;BME280;53654;54.152;19.432;2022-08-19T07:29:24;101195.82;;;30.14;47.30
66742;BME280;53654;54.152;19.432;2022-08-19T07:31:56;101199.67;;;30.16;47.51
66742;BME280;53654;54.152;19.432;2022-08-19T07:34:28;101201.73;;;30.15;47.53
66742;BME280;53654;54.152;19.432;2022-08-19T07:36:57;101198.01;;;30.06;48.09
66742;BME280;53654;54.152;19.432;2022-08-19T07:39:28;101194.22;;;30.02;48.22
66742;BME280;53654;54.152;19.432;2022-08-19T07:41:58;101188.91;;;30.03;48.51
66742;BME280;53654;54.152;19.432;2022-08-19T07:44:27;101187.88;;;30.07;48.55
66742;BME280;53654;54.152;19.432;2022-08-19T07:46:56;101187.54;;;30.06;48.57
66742;BME280;53654;54.152;19.432;2022-08-19T07:49:25;101187.64;;;30.03;48.81
66742;BME280;53654;54.152;19.432;2022-08-19T07:51:58;101191.92;;;30.05;48.51
66742;BME280;53654;54.152;19.432;2022-08-19T07:54:31;101188.91;;;30.00;48.44
66742;BME280;53654;54.152;19.432;2022-08-19T07:57:02;101186.62;;;29.98;48.34
66742;BME280;53654;54.152;19.432;2022-08-19T07:59:31;101181.78;;;29.97;48.15
66742;BME280;53654;54.152;19.432;2022-08-19T08:02:00;101181.86;;;29.99;48.22
66742;BME280;53654;54.152;19.432;2022-08-19T08:04:29;101178.09;;;30.01;48.36
66742;BME280;53654;54.152;19.432;2022-08-19T08:07:16;101176.79;;;30.06;48.45
66742;BME280;53654;54.152;19.432;2022-08-19T08:10:05;101174.04;;;30.13;47.67
66742;BME280;53654;54.152;19.432;2022-08-19T08:12:46;101179.17;;;30.18;47.86
66742;BME280;53654;54.152;19.432;2022-08-19T08:15:36;101183.97;;;30.27;47.49
66742;BME280;53654;54.152;19.432;2022-08-19T08:18:11;101189.02;;;30.29;46.69
66742;BME280;53654;54.152;19.432;2022-08-19T08:20:41;101183.42;;;30.29;46.29
66742;BME280;53654;54.152;19.432;2022-08-19T08:23:09;101180.23;;;30.33;46.02
66742;BME280;53654;54.152;19.432;2022-08-19T08:25:56;101178.23;;;30.35;46.43
66742;BME280;53654;54.152;19.432;2022-08-19T08:28:26;101177.84;;;30.36;46.24
66742;BME280;53654;54.152;19.432;2022-08-19T08:30:57;101178.39;;;30.33;46.10
66742;BME280;53654;54.152;19.432;2022-08-19T08:33:27;101179.54;;;30.31;45.57
66742;BME280;53654;54.152;19.432;2022-08-19T08:36:04;101169.34;;;30.28;45.70
66742;BME280;53654;54.152;19.432;2022-08-19T08:38:33;101170.64;;;30.27;46.11
66742;BME280;53654;54.152;19.432;2022-08-19T08:43:56;101171.10;;;30.32;46.38
66742;BME280;53654;54.152;19.432;2022-08-19T08:46:38;101169.63;;;30.39;46.27
66742;BME280;53654;54.152;19.432;2022-08-19T08:52:22;101164.19;;;30.59;45.93
66742;BME280;53654;54.152;19.432;2022-08-19T08:55:00;101168.08;;;30.72;44.99
66742;BME280;53654;54.152;19.432;2022-08-19T09:00:17;101169.21;;;30.78;44.87
66742;BME280;53654;54.152;19.432;2022-08-19T09:02:45;101168.16;;;30.79;44.54
66742;BME280;53654;54.152;19.432;2022-08-19T09:05:19;101159.78;;;30.85;44.69
66742;BME280;53654;54.152;19.432;2022-08-19T09:09:01;101158.04;;;30.94;44.87
66742;BME280;53654;54.152;19.432;2022-08-19T09:11:03;101156.23;;;31.08;44.21
66742;BME280;53654;54.152;19.432;2022-08-19T09:13:44;101151.58;;;31.15;44.16
66742;BME280;53654;54.152;19.432;2022-08-19T09:16:19;101148.97;;;31.22;44.42
66742;BME280;53654;54.152;19.432;2022-08-19T09:18:58;101150.32;;;31.29;43.92
66742;BME280;53654;54.152;19.432;2022-08-19T09:21:29;101155.63;;;31.38;43.97
66742;BME280;53654;54.152;19.432;2022-08-19T09:24:01;101145.84;;;31.37;43.49
66742;BME280;53654;54.152;19.432;2022-08-19T09:26:32;101144.02;;;31.43;43.58
66742;BME280;53654;54.152;19.432;2022-08-19T09:29:20;101147.16;;;31.48;43.24
66742;BME280;53654;54.152;19.432;2022-08-19T09:31:49;101146.61;;;31.48;43.24
66742;BME280;53654;54.152;19.432;2022-08-19T09:34:17;101149.39;;;31.49;42.87
66742;BME280;53654;54.152;19.432;2022-08-19T09:36:49;101143.29;;;31.49;43.20
66742;BME280;53654;54.152;19.432;2022-08-19T09:39:21;101151.45;;;31.47;42.76
66742;BME280;53654;54.152;19.432;2022-08-19T09:41:51;101146.77;;;31.40;42.83
66742;BME280;53654;54.152;19.432;2022-08-19T09:44:20;101153.30;;;31.38;42.66
66742;BME280;53654;54.152;19.432;2022-08-19T09:46:49;101153.06;;;31.33;42.88
66742;BME280;53654;54.152;19.432;2022-08-19T09:49:19;101156.38;;;31.24;43.07
66742;BME280;53654;54.152;19.432;2022-08-19T09:51:52;101157.31;;;31.17;43.35
66742;BME280;53654;54.152;19.432;2022-08-19T09:54:24;101162.39;;;31.08;43.64
66742;BME280;53654;54.152;19.432;2022-08-19T09:56:54;101162.31;;;31.01;43.62
66742;BME280;53654;54.152;19.432;2022-08-19T09:59:22;101156.95;;;30.96;43.96
66742;BME280;53654;54.152;19.432;2022-08-19T10:01:50;101152.77;;;31.00;43.89
66742;BME280;53654;54.152;19.432;2022-08-19T10:04:20;101154.11;;;31.10;43.66
66742;BME280;53654;54.152;19.432;2022-08-19T10:06:55;101147.65;;;31.25;43.99
66742;BME280;53654;54.152;19.432;2022-08-19T10:09:24;101148.61;;;31.38;43.54
66742;BME280;53654;54.152;19.432;2022-08-19T10:12:04;101140.78;;;31.47;43.17
66742;BME280;53654;54.152;19.432;2022-08-19T10:14:33;101139.61;;;31.56;42.87
66742;BME280;53654;54.152;19.432;2022-08-19T10:17:02;101139.29;;;31.55;42.76
66742;BME280;53654;54.152;19.432;2022-08-19T10:19:44;101137.59;;;31.60;43.10
66742;BME280;53654;54.152;19.432;2022-08-19T10:22:23;101141.30;;;31.63;42.09
66742;BME280;53654;54.152;19.432;2022-08-19T10:24:53;101127.59;;;31.61;41.83
66742;BME280;53654;54.152;19.432;2022-08-19T10:27:21;101125.75;;;31.63;41.97
66742;BME280;53654;54.152;19.432;2022-08-19T10:29:50;101123.71;;;31.67;42.03
66742;BME280;53654;54.152;19.432;2022-08-19T10:32:18;101122.64;;;31.67;41.94
66742;BME280;53654;54.152;19.432;2022-08-19T10:35:02;101125.44;;;31.66;42.20
66742;BME280;53654;54.152;19.432;2022-08-19T10:37:32;101117.13;;;31.61;42.43
66742;BME280;53654;54.152;19.432;2022-08-19T10:40:04;101122.88;;;31.63;42.29
66742;BME280;53654;54.152;19.432;2022-08-19T10:42:34;101111.17;;;31.65;41.69
66742;BME280;53654;54.152;19.432;2022-08-19T10:45:04;101115.66;;;31.65;42.03
66742;BME280;53654;54.152;19.432;2022-08-19T10:47:33;101113.91;;;31.64;42.02
66742;BME280;53654;54.152;19.432;2022-08-19T10:50:03;101111.73;;;31.61;41.68
66742;BME280;53654;54.152;19.432;2022-08-19T10:52:55;101102.98;;;31.58;42.07
66742;BME280;53654;54.152;19.432;2022-08-19T10:55:23;101097.34;;;31.62;41.78
66742;BME280;53654;54.152;19.432;2022-08-19T10:58:16;101094.13;;;31.66;41.84
66742;BME280;53654;54.152;19.432;2022-08-19T11:00:51;101091.81;;;31.67;41.54
66742;BME280;53654;54.152;19.432;2022-08-19T11:03:21;101091.32;;;31.69;41.69
66742;BME280;53654;54.152;19.432;2022-08-19T11:06:04;101086.51;;;31.68;41.66
66742;BME280;53654;54.152;19.432;2022-08-19T11:08:35;101076.10;;;31.66;41.68
66742;BME280;53654;54.152;19.432;2022-08-19T11:11:06;101069.46;;;31.65;41.55
66742;BME280;53654;54.152;19.432;2022-08-19T11:13:37;101066.86;;;31.68;41.77
66742;BME280;53654;54.152;19.432;2022-08-19T11:16:12;101064.83;;;31.75;41.40
66742;BME280;53654;54.152;19.432;2022-08-19T11:18:44;101062.02;;;31.80;41.07
66742;BME280;53654;54.152;19.432;2022-08-19T11:21:14;101060.11;;;31.81;41.07
66742;BME280;53654;54.152;19.432;2022-08-19T11:23:46;101055.18;;;31.80;41.02
66742;BME280;53654;54.152;19.432;2022-08-19T11:26:16;101055.58;;;31.80;40.62
66742;BME280;53654;54.152;19.432;2022-08-19T11:28:45;101051.00;;;31.74;40.49
66742;BME280;53654;54.152;19.432;2022-08-19T11:31:17;101040.38;;;31.74;40.95
66742;BME280;53654;54.152;19.432;2022-08-19T11:33:46;101047.09;;;31.76;40.42
66742;BME280;53654;54.152;19.432;2022-08-19T11:36:14;101042.50;;;31.75;40.39
66742;BME280;53654;54.152;19.432;2022-08-19T11:38:44;101042.94;;;31.76;40.17
66742;BME280;53654;54.152;19.432;2022-08-19T11:41:12;101040.34;;;31.77;39.10
66742;BME280;53654;54.152;19.432;2022-08-19T11:43:41;101033.31;;;31.75;39.32
66742;BME280;53654;54.152;19.432;2022-08-19T11:46:11;101038.43;;;31.74;39.13
66742;BME280;53654;54.152;19.432;2022-08-19T11:48:41;101028.52;;;31.74;39.15
66742;BME280;53654;54.152;19.432;2022-08-19T11:51:14;101021.23;;;31.77;38.79
66742;BME280;53654;54.152;19.432;2022-08-19T11:53:42;101020.64;;;31.79;38.37
66742;BME280;53654;54.152;19.432;2022-08-19T11:56:10;101017.55;;;31.83;38.40
66742;BME280;53654;54.152;19.432;2022-08-19T11:58:39;101014.88;;;31.88;38.21
66742;BME280;53654;54.152;19.432;2022-08-19T12:01:11;101011.77;;;31.95;38.43
66742;BME280;53654;54.152;19.432;2022-08-19T12:03:40;101010.89;;;32.04;38.23
66742;BME280;53654;54.152;19.432;2022-08-19T12:06:10;101003.82;;;32.08;37.89
66742;BME280;53654;54.152;19.432;2022-08-19T12:08:41;101002.90;;;32.12;37.66
66742;BME280;53654;54.152;19.432;2022-08-19T12:11:12;100998.69;;;32.11;37.98
66742;BME280;53654;54.152;19.432;2022-08-19T12:13:41;100994.46;;;32.13;38.06
66742;BME280;53654;54.152;19.432;2022-08-19T12:16:16;100996.67;;;32.16;37.45
66742;BME280;53654;54.152;19.432;2022-08-19T12:18:45;100990.60;;;32.19;37.44
66742;BME280;53654;54.152;19.432;2022-08-19T12:21:16;100993.59;;;32.25;36.96
66742;BME280;53654;54.152;19.432;2022-08-19T12:23:44;100986.68;;;32.25;37.07
66742;BME280;53654;54.152;19.432;2022-08-19T12:26:13;100981.23;;;32.25;37.06
66742;BME280;53654;54.152;19.432;2022-08-19T12:28:41;100976.52;;;32.29;36.84
66742;BME280;53654;54.152;19.432;2022-08-19T12:31:10;100983.23;;;32.34;35.87
66742;BME280;53654;54.152;19.432;2022-08-19T12:33:40;100981.57;;;32.37;36.04
66742;BME280;53654;54.152;19.432;2022-08-19T12:36:11;100981.73;;;32.39;35.42
66742;BME280;53654;54.152;19.432;2022-08-19T12:38:40;100983.83;;;32.42;35.46
66742;BME280;53654;54.152;19.432;2022-08-19T12:41:11;100985.39;;;32.44;34.23
66742;BME280;53654;54.152;19.432;2022-08-19T12:43:39;100987.13;;;32.43;34.35
66742;BME280;53654;54.152;19.432;2022-08-19T12:46:10;100978.40;;;32.45;34.66
66742;BME280;53654;54.152;19.432;2022-08-19T12:48:39;100977.56;;;32.49;34.95
66742;BME280;53654;54.152;19.432;2022-08-19T12:51:17;100973.88;;;32.51;35.37
66742;BME280;53654;54.152;19.432;2022-08-19T12:53:47;100972.55;;;32.53;35.72
66742;BME280;53654;54.152;19.432;2022-08-19T12:56:15;100968.55;;;32.54;35.79
66742;BME280;53654;54.152;19.432;2022-08-19T12:58:49;100966.67;;;32.54;36.18
66742;BME280;53654;54.152;19.432;2022-08-19T13:01:20;100964.88;;;32.54;35.84
66742;BME280;53654;54.152;19.432;2022-08-19T13:03:50;100962.71;;;32.54;35.71
66742;BME280;53654;54.152;19.432;2022-08-19T13:06:21;100951.80;;;32.52;35.68
66742;BME280;53654;54.152;19.432;2022-08-19T13:08:49;100955.41;;;32.48;35.62
66742;BME280;53654;54.152;19.432;2022-08-19T13:11:20;100947.55;;;32.45;35.85
66742;BME280;53654;54.152;19.432;2022-08-19T13:13:49;100942.91;;;32.45;35.66